x

San Clemente Basin - 27nm Se Of San Clemente Is, Ca (46086) Wave Buoy

2:50pm - Sat 21st Oct 2017 All times are PDT. -7 hours from GMT.

  • Sig Wave height 9.5ft
  • Swell Direction
  • Peak Period 15s
  • Average Period 9s
  • Wind
    11mph, 13mph gusts
  • Sea Temp 69°f
  • Air Temp 67°f
  • Sea Pressure 1016.2mb
  • San Clemente Basin - 27nm Se Of San Clemente Is, Ca
  • San Clemente Basin - 27nm Se Of San Clemente Is, Ca

More Historic Weather Station data

Upgrade to MSW Pro to gain access to the past 30 days of data for over 8000 Wavebouys and Weather Stations around the globe.

Join

Comparision Forecast

View Surf forecast
   
Sat 10/21 2:50pm 9.5ft 15s 9s 11 13 mph 1016.2mb 69f 67f
1:50pm 9ft 16s 8s 13 16 mph 1016.7mb 69f 67f
12:50pm 10ft 17s 8s 11 13 mph 1017.4mb 69f 67f
11:50am 10ft 16s 9s 11 16 mph 1017.6mb 69f 67f
10:50am 8.5ft 14s 8s 11 13 mph 1017.9mb 69f 67f
9:50am 10ft 17s 9s 11 16 mph 1017.3mb 69f 67f
8:50am 10ft 17s 8s 9 13 mph 1016.8mb 69f 67f
7:50am 10ft 16s 9s 11 13 mph 1015.9mb 69f 66f
6:50am 11ft 17s 9s 11 13 mph 1015.5mb 69f 66f
5:50am 11ft 17s 8s 11 16 mph 1014.9mb 69f 66f
4:50am 10.5ft 15s 8s 11 16 mph 1014.8mb 69f 66f
3:50am 10ft 17s 8s 11 16 mph 1015mb 69f 65f
2:50am 11ft 17s 8s 11 16 mph 1015.3mb 69f 65f
1:50am 10ft 8s 7s 16 20 mph 1015.2mb 69f 65f
12:50am 11ft 17s 8s 20 25 mph 1015.2mb 69f 65f
Fri 10/20 11:50pm 10ft 9s 7s 20 27 mph 1014.8mb 69f 65f
10:50pm 11.5ft 8s 7s 25 29 mph 1014.7mb 69f 65f
9:50pm 10ft 8s 7s 25 29 mph 1014.3mb 69f 65f
8:50pm 9.5ft 17s 7s 27 31 mph 1014.4mb 69f 65f
7:50pm 9.5ft 19s 7s 25 29 mph 1014.3mb 69f 65f
6:50pm 8ft 19s 7s 25 29 mph 1014mb 69f 65f
5:50pm 8ft 19s 7s 22 27 mph 1013.8mb 70f 65f
4:50pm 7.5ft 19s 6s 22 27 mph 1013.9mb 70f 65f
3:50pm 7ft 6s 6s 22 27 mph 1014.2mb 70f 65f
2:50pm 6.5ft 6s 6s 20 25 mph 1014.6mb 70f 66f
1:50pm 6ft 7s 6s 22 27 mph 1014.4mb 70f 67f
12:50pm 6ft 6s 5s 25 29 mph 1014.8mb 70f 66f
11:50am 5.5ft 6s 6s 18 22 mph 1015.8mb 70f 66f
10:50am 5.5ft 7s 6s 16 20 mph 1015.8mb 70f 66f
9:50am 6ft 6s 6s 20 22 mph 1015.6mb 70f 66f
8:50am 6ft 6s 5s 22 27 mph 1015.5mb 70f 66f
7:50am 7ft 7s 6s 22 27 mph 1015.1mb 70f 66f
6:50am 6ft 7s 6s 25 29 mph 1014.8mb 70f 66f
5:50am 5.5ft 7s 6s 20 25 mph 1014.3mb 70f 67f
4:50am 6ft 15s 6s 18 20 mph 1013.6mb 70f 67f
3:50am 6ft 14s 6s 18 22 mph 1013.6mb 70f 67f
2:50am 6ft 7s 6s 16 20 mph 1013.8mb 70f 67f
1:50am 6ft 7s 6s 20 25 mph 1013.9mb 70f 67f
12:50am 6ft 8s 6s 22 27 mph 1013.6mb 70f 68f
Thu 10/19 11:50pm 5ft 15s 6s 18 20 mph 1013.2mb 70f 68f
10:50pm 5ft 12s 6s 13 16 mph 1013.6mb 70f 67f
9:50pm 5ft 13s 6s 13 16 mph 1013.6mb 70f 66f
8:50pm 5ft 14s 6s 13 16 mph 1013.2mb 70f 66f
7:50pm 5ft 13s 6s 18 22 mph 1013mb 70f 66f
6:50pm 5ft 14s 6s 18 22 mph 1012.4mb 70f 66f
5:50pm 6ft 15s  -  18 20 mph 1011.9mb 70f 67f
4:50pm 5.5ft 14s 6s 18 20 mph 1011.8mb 70f 67f
3:50pm 6ft 15s 6s 18 20 mph 1012.2mb 70f 67f
2:50pm 5ft 15s 6s 16 18 mph 1012.2mb 70f 66f
1:50pm 5.5ft 14s 6s 18 20 mph 1012.5mb 70f 66f
12:50pm 5.5ft 8s 6s 16 20 mph 1013mb 70f 66f
11:50am 5.5ft 14s 6s 16 18 mph 1013.5mb 70f 66f
10:50am 6ft 8s 6s 16 18 mph 1013.6mb 70f 66f
9:50am 6ft 15s 6s 16 18 mph 1013.5mb 70f 66f
8:50am 6ft 15s 6s 13 16 mph 1013.3mb 70f 66f
7:50am 6ft 8s 6s 11 13 mph 1012.7mb 70f 67f
6:50am 6ft 15s 6s 13 16 mph 1012.6mb 70f 67f
5:50am 6ft 15s 6s 13 16 mph 1012.4mb 70f 67f
4:50am 6ft 15s 6s 16 18 mph 1012.2mb 70f 67f
3:50am 5.5ft 16s 7s 16 18 mph 1012.3mb 70f 67f
2:50am 5.5ft 15s 6s 16 18 mph 1012.4mb 70f 67f
1:50am 5ft 15s 6s 13 18 mph 1012.8mb 70f 67f
12:50am 5ft 15s 6s 16 20 mph 1012.9mb 70f 67f
Wed 10/18 11:50pm 5ft 16s 6s 16 18 mph 1013mb 70f 67f
10:50pm 5ft 16s 6s 16 18 mph 1013.1mb 70f 67f
9:50pm 5ft 16s 7s 11 13 mph 1013.1mb 70f 68f
8:50pm 5ft 15s 6s 13 18 mph 1013.1mb 70f 68f
7:50pm 5ft 16s 6s 13 16 mph 1012.9mb 70f 68f
6:50pm 5ft 16s 7s 11 16 mph 1012.9mb 70f 68f
5:50pm 5ft 15s 6s 13 16 mph 1012.9mb 70f 69f
4:50pm 5.5ft 16s 6s 16 18 mph 1013mb 70f 69f
3:50pm 6ft 16s 7s 13 16 mph 1013mb 70f 69f
2:50pm 6ft 16s 6s 16 18 mph 1013.1mb 70f 69f
1:50pm 6ft 16s 6s 16 20 mph 1013.6mb 70f 69f
12:50pm 6ft 16s 7s 16 18 mph 1014.3mb 70f 69f
11:50am 5ft 16s 6s 13 16 mph 1014.5mb 70f 68f
10:50am 5.5ft 16s 7s 13 13 mph 1014.5mb 70f 68f
9:50am 5ft 16s 7s 13 18 mph 1014.7mb 70f 68f
8:50am 5.5ft 16s 8s 13 16 mph 1014.3mb 70f 69f
7:50am 6ft 17s 8s 9 11 mph 1013.6mb 70f 69f
6:50am 5ft 17s 7s 11 13 mph 1013.6mb 70f 69f
5:50am 5ft 17s 7s 13 13 mph 1013.6mb 70f 69f
4:50am 5.5ft 17s 8s 13 18 mph 1013.4mb 70f 70f
3:50am 6ft 17s 8s 13 16 mph 1013.1mb 70f 70f
2:50am 5ft 16s 7s 13 16 mph 1013.3mb 70f 71f
1:50am 5.5ft 17s 8s 9 11 mph 1013.6mb 70f 70f
12:50am 5.5ft 17s 8s 13 16 mph 1013.7mb 70f 70f
Tue 10/17 11:50pm 5ft 17s 7s 9 11 mph 1013.9mb 70f 70f